Terminal Aerodrome Forecast
Issued by NWS

Home | Current Version | Previous Version | Text Only | Print | Product List | Glossary On
Versions: 1 2 3 4 5 6 7 8 9 10 11 12 13
000
FTUS46 KLOX 171100 RRA
TAFWJF
TAF
KWJF 171144Z 1712/1812 VRB05KT P6SM SCT200
     FM171900 24012KT P6SM BKN200
     FM172100 23018G25KT P6SM BKN200
     FM180400 23012KT P6SM BKN200=

USA.gov is the U.S. government's official web portal to all federal, state and local government web resources and services.